Aviation Digital Data Service (ADDS)

Output produced by METARs form (0930 UTC 20 November 2017)
found at http://aviationweather.gov/adds/metars/
 
KGLS 200852Z AUTO 04007KT 10SM CLR 14/06 A3021 RMK AO2 SLP229 T01440061 56010